sensor_id;sensor_type;location;lat;lon;timestamp;temperature;humidity
4910;DHT22;2470;49.868;8.660;2023-05-16T00:00:55;15.50;99.90
4910;DHT22;2470;49.868;8.660;2023-05-16T00:03:22;15.50;99.90
4910;DHT22;2470;49.868;8.660;2023-05-16T00:05:48;15.50;99.90
4910;DHT22;2470;49.868;8.660;2023-05-16T00:08:15;15.50;99.90
4910;DHT22;2470;49.868;8.660;2023-05-16T00:10:40;15.50;99.90
4910;DHT22;2470;49.868;8.660;2023-05-16T00:13:06;15.50;99.90
4910;DHT22;2470;49.868;8.660;2023-05-16T00:15:31;15.50;99.90
4910;DHT22;2470;49.868;8.660;2023-05-16T00:17:57;15.50;99.90
4910;DHT22;2470;49.868;8.660;2023-05-16T00:20:27;15.50;99.90
4910;DHT22;2470;49.868;8.660;2023-05-16T00:22:53;15.50;99.90
4910;DHT22;2470;49.868;8.660;2023-05-16T00:25:19;15.50;99.90
4910;DHT22;2470;49.868;8.660;2023-05-16T00:27:45;15.50;99.90
4910;DHT22;2470;49.868;8.660;2023-05-16T00:30:11;15.40;99.90
4910;DHT22;2470;49.868;8.660;2023-05-16T00:32:37;15.40;99.90
4910;DHT22;2470;49.868;8.660;2023-05-16T00:35:02;15.40;99.90
4910;DHT22;2470;49.868;8.660;2023-05-16T00:37:28;15.40;99.90
4910;DHT22;2470;49.868;8.660;2023-05-16T00:39:54;15.30;99.90
4910;DHT22;2470;49.868;8.660;2023-05-16T00:42:20;15.30;99.90
4910;DHT22;2470;49.868;8.660;2023-05-16T00:44:46;15.40;99.90
4910;DHT22;2470;49.868;8.660;2023-05-16T00:47:12;15.40;99.90
4910;DHT22;2470;49.868;8.660;2023-05-16T00:49:38;15.40;99.90
4910;DHT22;2470;49.868;8.660;2023-05-16T00:52:04;15.40;99.90
4910;DHT22;2470;49.868;8.660;2023-05-16T00:54:30;15.40;99.90
4910;DHT22;2470;49.868;8.660;2023-05-16T00:56:56;15.40;99.90
4910;DHT22;2470;49.868;8.660;2023-05-16T00:59:24;15.40;99.90
4910;DHT22;2470;49.868;8.660;2023-05-16T01:01:50;15.30;99.90
4910;DHT22;2470;49.868;8.660;2023-05-16T01:04:17;15.20;99.90
4910;DHT22;2470;49.868;8.660;2023-05-16T01:06:43;15.20;99.90
4910;DHT22;2470;49.868;8.660;2023-05-16T01:09:09;15.30;99.90
4910;DHT22;2470;49.868;8.660;2023-05-16T01:11:43;15.30;99.90
4910;DHT22;2470;49.868;8.660;2023-05-16T01:20:20;15.30;99.90
4910;DHT22;2470;49.868;8.660;2023-05-16T01:23:15;15.30;99.90
4910;DHT22;2470;49.868;8.660;2023-05-16T01:25:46;15.30;99.90
4910;DHT22;2470;49.868;8.660;2023-05-16T01:28:17;15.30;99.90
4910;DHT22;2470;49.868;8.660;2023-05-16T01:30:43;15.30;99.90
4910;DHT22;2470;49.868;8.660;2023-05-16T01:33:09;15.30;99.90
4910;DHT22;2470;49.868;8.660;2023-05-16T01:35:40;15.30;99.90
4910;DHT22;2470;49.868;8.660;2023-05-16T01:38:17;15.30;99.90
4910;DHT22;2470;49.868;8.660;2023-05-16T01:43:20;15.30;99.90
4910;DHT22;2470;49.868;8.660;2023-05-16T01:45:59;15.30;99.90
4910;DHT22;2470;49.868;8.660;2023-05-16T01:48:34;15.20;99.90
4910;DHT22;2470;49.868;8.660;2023-05-16T01:51:02;15.20;99.90
4910;DHT22;2470;49.868;8.660;2023-05-16T01:53:34;15.20;99.90
4910;DHT22;2470;49.868;8.660;2023-05-16T01:56:01;15.20;99.90
4910;DHT22;2470;49.868;8.660;2023-05-16T01:58:32;15.20;99.90
4910;DHT22;2470;49.868;8.660;2023-05-16T02:01:02;15.20;99.90
4910;DHT22;2470;49.868;8.660;2023-05-16T02:03:31;15.10;99.90
4910;DHT22;2470;49.868;8.660;2023-05-16T02:05:57;15.00;99.90
4910;DHT22;2470;49.868;8.660;2023-05-16T02:08:24;15.00;99.90
4910;DHT22;2470;49.868;8.660;2023-05-16T02:10:51;15.00;99.90
4910;DHT22;2470;49.868;8.660;2023-05-16T02:13:16;15.00;99.90
4910;DHT22;2470;49.868;8.660;2023-05-16T02:15:42;15.00;99.90
4910;DHT22;2470;49.868;8.660;2023-05-16T02:18:07;15.00;99.90
4910;DHT22;2470;49.868;8.660;2023-05-16T02:20:34;15.00;99.90
4910;DHT22;2470;49.868;8.660;2023-05-16T02:22:59;15.00;99.90
4910;DHT22;2470;49.868;8.660;2023-05-16T02:25:25;15.00;99.90
4910;DHT22;2470;49.868;8.660;2023-05-16T02:27:51;15.00;99.90
4910;DHT22;2470;49.868;8.660;2023-05-16T02:30:16;15.00;99.90
4910;DHT22;2470;49.868;8.660;2023-05-16T02:32:42;15.00;99.90
4910;DHT22;2470;49.868;8.660;2023-05-16T02:35:09;14.90;99.90
4910;DHT22;2470;49.868;8.660;2023-05-16T02:37:35;14.90;99.90
4910;DHT22;2470;49.868;8.660;2023-05-16T02:40:00;14.90;99.90
4910;DHT22;2470;49.868;8.660;2023-05-16T02:42:26;14.90;99.90
4910;DHT22;2470;49.868;8.660;2023-05-16T02:44:52;14.90;99.90
4910;DHT22;2470;49.868;8.660;2023-05-16T02:47:17;14.80;99.90
4910;DHT22;2470;49.868;8.660;2023-05-16T02:49:43;14.80;99.90
4910;DHT22;2470;49.868;8.660;2023-05-16T02:52:08;14.80;99.90
4910;DHT22;2470;49.868;8.660;2023-05-16T02:54:34;14.80;99.90
4910;DHT22;2470;49.868;8.660;2023-05-16T02:57:00;14.80;99.90
4910;DHT22;2470;49.868;8.660;2023-05-16T02:59:25;14.80;99.90
4910;DHT22;2470;49.868;8.660;2023-05-16T03:01:51;14.80;99.90
4910;DHT22;2470;49.868;8.660;2023-05-16T03:04:17;14.70;99.90
4910;DHT22;2470;49.868;8.660;2023-05-16T03:06:42;14.70;99.90
4910;DHT22;2470;49.868;8.660;2023-05-16T03:09:08;14.70;99.90
4910;DHT22;2470;49.868;8.660;2023-05-16T03:11:34;14.70;99.90
4910;DHT22;2470;49.868;8.660;2023-05-16T03:13:59;14.60;99.90
4910;DHT22;2470;49.868;8.660;2023-05-16T03:16:25;14.60;99.90
4910;DHT22;2470;49.868;8.660;2023-05-16T03:18:51;14.60;99.90
4910;DHT22;2470;49.868;8.660;2023-05-16T03:21:16;14.50;99.90
4910;DHT22;2470;49.868;8.660;2023-05-16T03:23:42;14.50;99.90
4910;DHT22;2470;49.868;8.660;2023-05-16T03:26:07;14.40;99.90
4910;DHT22;2470;49.868;8.660;2023-05-16T03:28:33;14.40;99.90
4910;DHT22;2470;49.868;8.660;2023-05-16T03:30:58;14.40;99.90
4910;DHT22;2470;49.868;8.660;2023-05-16T03:33:24;14.40;99.90
4910;DHT22;2470;49.868;8.660;2023-05-16T03:35:50;14.30;99.90
4910;DHT22;2470;49.868;8.660;2023-05-16T03:38:16;14.30;99.90
4910;DHT22;2470;49.868;8.660;2023-05-16T03:40:42;14.30;99.90
4910;DHT22;2470;49.868;8.660;2023-05-16T03:43:07;14.30;99.90
4910;DHT22;2470;49.868;8.660;2023-05-16T03:45:33;14.30;99.90
4910;DHT22;2470;49.868;8.660;2023-05-16T03:47:58;14.30;99.90
4910;DHT22;2470;49.868;8.660;2023-05-16T03:50:24;14.30;99.90
4910;DHT22;2470;49.868;8.660;2023-05-16T03:52:50;14.30;99.90
4910;DHT22;2470;49.868;8.660;2023-05-16T03:55:17;14.20;99.90
4910;DHT22;2470;49.868;8.660;2023-05-16T03:57:42;14.20;99.90
4910;DHT22;2470;49.868;8.660;2023-05-16T04:00:09;14.20;99.90
4910;DHT22;2470;49.868;8.660;2023-05-16T04:02:35;14.20;99.90
4910;DHT22;2470;49.868;8.660;2023-05-16T04:05:01;14.20;99.90
4910;DHT22;2470;49.868;8.660;2023-05-16T04:07:26;14.20;99.90
4910;DHT22;2470;49.868;8.660;2023-05-16T04:09:53;14.20;99.90
4910;DHT22;2470;49.868;8.660;2023-05-16T04:12:20;14.20;99.90
4910;DHT22;2470;49.868;8.660;2023-05-16T04:14:46;14.20;99.90
4910;DHT22;2470;49.868;8.660;2023-05-16T04:17:11;14.20;99.90
4910;DHT22;2470;49.868;8.660;2023-05-16T04:19:37;14.20;99.90
4910;DHT22;2470;49.868;8.660;2023-05-16T04:22:02;14.10;99.90
4910;DHT22;2470;49.868;8.660;2023-05-16T04:24:28;14.20;99.90
4910;DHT22;2470;49.868;8.660;2023-05-16T04:26:54;14.10;99.90
4910;DHT22;2470;49.868;8.660;2023-05-16T04:29:20;14.20;99.90
4910;DHT22;2470;49.868;8.660;2023-05-16T04:31:45;14.10;99.90
4910;DHT22;2470;49.868;8.660;2023-05-16T04:34:11;14.20;99.90
4910;DHT22;2470;49.868;8.660;2023-05-16T04:36:37;14.20;99.90
4910;DHT22;2470;49.868;8.660;2023-05-16T04:39:03;14.20;99.90
4910;DHT22;2470;49.868;8.660;2023-05-16T04:41:28;14.30;99.90
4910;DHT22;2470;49.868;8.660;2023-05-16T04:43:54;14.30;99.90
4910;DHT22;2470;49.868;8.660;2023-05-16T04:46:20;14.20;99.90
4910;DHT22;2470;49.868;8.660;2023-05-16T04:48:46;14.20;99.90
4910;DHT22;2470;49.868;8.660;2023-05-16T04:51:11;14.30;99.90
4910;DHT22;2470;49.868;8.660;2023-05-16T04:53:37;14.30;99.90
4910;DHT22;2470;49.868;8.660;2023-05-16T04:56:02;14.40;99.90
4910;DHT22;2470;49.868;8.660;2023-05-16T04:58:30;14.40;99.90
4910;DHT22;2470;49.868;8.660;2023-05-16T05:00:56;14.50;99.90
4910;DHT22;2470;49.868;8.660;2023-05-16T05:03:22;14.50;99.90
4910;DHT22;2470;49.868;8.660;2023-05-16T05:05:47;14.50;99.90
4910;DHT22;2470;49.868;8.660;2023-05-16T05:08:13;14.60;99.90
4910;DHT22;2470;49.868;8.660;2023-05-16T05:10:39;14.60;99.90
4910;DHT22;2470;49.868;8.660;2023-05-16T05:13:05;14.60;99.90
4910;DHT22;2470;49.868;8.660;2023-05-16T05:15:30;14.60;99.90
4910;DHT22;2470;49.868;8.660;2023-05-16T05:17:56;14.60;99.90
4910;DHT22;2470;49.868;8.660;2023-05-16T05:20:21;14.60;99.90
4910;DHT22;2470;49.868;8.660;2023-05-16T05:22:47;14.50;99.90
4910;DHT22;2470;49.868;8.660;2023-05-16T05:25:13;14.50;99.90
4910;DHT22;2470;49.868;8.660;2023-05-16T05:27:39;14.50;99.90
4910;DHT22;2470;49.868;8.660;2023-05-16T05:30:05;14.50;99.90
4910;DHT22;2470;49.868;8.660;2023-05-16T05:32:31;14.50;99.90
4910;DHT22;2470;49.868;8.660;2023-05-16T05:34:56;14.60;99.90
4910;DHT22;2470;49.868;8.660;2023-05-16T05:37:22;14.60;99.90
4910;DHT22;2470;49.868;8.660;2023-05-16T05:39:47;14.60;99.90
4910;DHT22;2470;49.868;8.660;2023-05-16T05:42:13;14.60;99.90
4910;DHT22;2470;49.868;8.660;2023-05-16T05:44:38;14.60;99.90
4910;DHT22;2470;49.868;8.660;2023-05-16T05:47:05;14.60;99.90
4910;DHT22;2470;49.868;8.660;2023-05-16T05:49:31;14.70;99.90
4910;DHT22;2470;49.868;8.660;2023-05-16T05:51:57;14.60;99.90
4910;DHT22;2470;49.868;8.660;2023-05-16T05:54:23;14.70;99.90
4910;DHT22;2470;49.868;8.660;2023-05-16T05:56:49;14.70;99.90
4910;DHT22;2470;49.868;8.660;2023-05-16T05:59:14;14.70;99.90
4910;DHT22;2470;49.868;8.660;2023-05-16T06:01:40;14.70;99.90
4910;DHT22;2470;49.868;8.660;2023-05-16T06:04:06;14.70;99.90
4910;DHT22;2470;49.868;8.660;2023-05-16T06:06:32;14.70;99.90
4910;DHT22;2470;49.868;8.660;2023-05-16T06:08:58;14.60;99.90
4910;DHT22;2470;49.868;8.660;2023-05-16T06:11:23;14.60;99.90
4910;DHT22;2470;49.868;8.660;2023-05-16T06:13:52;14.60;99.90
4910;DHT22;2470;49.868;8.660;2023-05-16T06:16:17;14.60;99.90
4910;DHT22;2470;49.868;8.660;2023-05-16T06:18:43;14.60;99.90
4910;DHT22;2470;49.868;8.660;2023-05-16T06:21:09;14.60;99.90
4910;DHT22;2470;49.868;8.660;2023-05-16T06:23:34;14.50;99.90
4910;DHT22;2470;49.868;8.660;2023-05-16T06:26:01;14.50;99.90
4910;DHT22;2470;49.868;8.660;2023-05-16T06:28:27;14.40;99.90
4910;DHT22;2470;49.868;8.660;2023-05-16T06:30:53;14.40;99.90
4910;DHT22;2470;49.868;8.660;2023-05-16T06:33:19;14.30;99.90
4910;DHT22;2470;49.868;8.660;2023-05-16T06:35:44;14.30;99.90
4910;DHT22;2470;49.868;8.660;2023-05-16T06:38:10;14.30;99.90
4910;DHT22;2470;49.868;8.660;2023-05-16T06:40:35;14.20;99.90
4910;DHT22;2470;49.868;8.660;2023-05-16T06:43:02;14.20;99.90
4910;DHT22;2470;49.868;8.660;2023-05-16T06:45:27;14.20;99.90
4910;DHT22;2470;49.868;8.660;2023-05-16T06:47:54;14.20;99.90
4910;DHT22;2470;49.868;8.660;2023-05-16T06:50:20;14.20;99.90
4910;DHT22;2470;49.868;8.660;2023-05-16T06:52:45;14.20;99.90
4910;DHT22;2470;49.868;8.660;2023-05-16T06:55:11;14.20;99.90
4910;DHT22;2470;49.868;8.660;2023-05-16T06:57:36;14.20;99.90
4910;DHT22;2470;49.868;8.660;2023-05-16T07:00:02;14.20;99.90
4910;DHT22;2470;49.868;8.660;2023-05-16T07:02:28;14.20;99.90
4910;DHT22;2470;49.868;8.660;2023-05-16T07:05:09;14.10;99.90
4910;DHT22;2470;49.868;8.660;2023-05-16T07:07:34;14.10;99.90
4910;DHT22;2470;49.868;8.660;2023-05-16T07:10:00;14.10;99.90
4910;DHT22;2470;49.868;8.660;2023-05-16T07:12:26;14.10;99.90
4910;DHT22;2470;49.868;8.660;2023-05-16T07:14:51;14.10;99.90
4910;DHT22;2470;49.868;8.660;2023-05-16T07:17:17;14.10;99.90
4910;DHT22;2470;49.868;8.660;2023-05-16T07:19:42;14.10;99.90
4910;DHT22;2470;49.868;8.660;2023-05-16T07:22:08;14.10;99.90
4910;DHT22;2470;49.868;8.660;2023-05-16T07:24:33;14.00;99.90
4910;DHT22;2470;49.868;8.660;2023-05-16T07:27:00;14.00;99.90
4910;DHT22;2470;49.868;8.660;2023-05-16T07:29:26;14.00;99.90
4910;DHT22;2470;49.868;8.660;2023-05-16T07:31:51;14.10;99.90
4910;DHT22;2470;49.868;8.660;2023-05-16T07:34:17;14.00;99.90
4910;DHT22;2470;49.868;8.660;2023-05-16T07:36:42;14.00;99.90
4910;DHT22;2470;49.868;8.660;2023-05-16T07:39:08;14.00;99.90
4910;DHT22;2470;49.868;8.660;2023-05-16T07:41:33;14.00;99.90
4910;DHT22;2470;49.868;8.660;2023-05-16T07:43:59;14.00;99.90
4910;DHT22;2470;49.868;8.660;2023-05-16T07:46:25;14.00;99.90
4910;DHT22;2470;49.868;8.660;2023-05-16T07:48:50;14.00;99.90
4910;DHT22;2470;49.868;8.660;2023-05-16T07:51:16;14.00;99.90
4910;DHT22;2470;49.868;8.660;2023-05-16T07:53:41;14.00;99.90
4910;DHT22;2470;49.868;8.660;2023-05-16T07:56:07;14.00;99.90
4910;DHT22;2470;49.868;8.660;2023-05-16T07:58:33;14.00;99.90
4910;DHT22;2470;49.868;8.660;2023-05-16T08:00:59;14.00;99.90
4910;DHT22;2470;49.868;8.660;2023-05-16T08:03:25;14.00;99.90
4910;DHT22;2470;49.868;8.660;2023-05-16T08:05:50;14.00;99.90
4910;DHT22;2470;49.868;8.660;2023-05-16T08:08:16;14.10;99.90
4910;DHT22;2470;49.868;8.660;2023-05-16T08:10:42;14.10;99.90
4910;DHT22;2470;49.868;8.660;2023-05-16T08:13:07;14.10;99.90
4910;DHT22;2470;49.868;8.660;2023-05-16T08:15:36;14.10;99.90
4910;DHT22;2470;49.868;8.660;2023-05-16T08:18:02;14.10;99.90
4910;DHT22;2470;49.868;8.660;2023-05-16T08:20:27;14.10;99.90
4910;DHT22;2470;49.868;8.660;2023-05-16T08:22:54;14.10;99.90
4910;DHT22;2470;49.868;8.660;2023-05-16T08:25:19;14.10;99.90
4910;DHT22;2470;49.868;8.660;2023-05-16T08:27:47;14.00;99.90
4910;DHT22;2470;49.868;8.660;2023-05-16T08:30:13;14.00;99.90
4910;DHT22;2470;49.868;8.660;2023-05-16T08:32:39;13.90;99.90
4910;DHT22;2470;49.868;8.660;2023-05-16T08:35:05;13.90;99.90
4910;DHT22;2470;49.868;8.660;2023-05-16T08:37:30;13.80;99.90
4910;DHT22;2470;49.868;8.660;2023-05-16T08:39:57;13.60;99.90
4910;DHT22;2470;49.868;8.660;2023-05-16T08:42:22;13.50;99.90
4910;DHT22;2470;49.868;8.660;2023-05-16T08:44:48;13.40;99.90
4910;DHT22;2470;49.868;8.660;2023-05-16T08:47:18;13.40;99.90
4910;DHT22;2470;49.868;8.660;2023-05-16T08:49:47;13.30;99.90
4910;DHT22;2470;49.868;8.660;2023-05-16T08:52:13;13.30;99.90
4910;DHT22;2470;49.868;8.660;2023-05-16T08:54:42;13.30;99.90
4910;DHT22;2470;49.868;8.660;2023-05-16T08:57:08;13.30;99.90
4910;DHT22;2470;49.868;8.660;2023-05-16T08:59:34;13.40;99.90
4910;DHT22;2470;49.868;8.660;2023-05-16T09:02:00;13.50;99.90
4910;DHT22;2470;49.868;8.660;2023-05-16T09:04:25;13.60;99.90
4910;DHT22;2470;49.868;8.660;2023-05-16T09:06:52;13.60;99.90
4910;DHT22;2470;49.868;8.660;2023-05-16T09:09:17;13.70;99.90
4910;DHT22;2470;49.868;8.660;2023-05-16T09:11:43;13.80;99.90
4910;DHT22;2470;49.868;8.660;2023-05-16T09:14:09;13.90;99.90
4910;DHT22;2470;49.868;8.660;2023-05-16T09:16:35;14.00;99.90
4910;DHT22;2470;49.868;8.660;2023-05-16T09:19:01;14.10;99.90
4910;DHT22;2470;49.868;8.660;2023-05-16T09:21:28;14.30;99.90
4910;DHT22;2470;49.868;8.660;2023-05-16T09:23:54;14.40;99.90
4910;DHT22;2470;49.868;8.660;2023-05-16T09:26:19;14.50;99.90
4910;DHT22;2470;49.868;8.660;2023-05-16T09:28:46;14.50;99.90
4910;DHT22;2470;49.868;8.660;2023-05-16T09:31:25;14.50;99.90
4910;DHT22;2470;49.868;8.660;2023-05-16T09:33:52;14.60;99.90
4910;DHT22;2470;49.868;8.660;2023-05-16T09:36:18;14.50;99.90
4910;DHT22;2470;49.868;8.660;2023-05-16T09:38:44;14.50;99.90
4910;DHT22;2470;49.868;8.660;2023-05-16T09:41:10;14.50;99.90
4910;DHT22;2470;49.868;8.660;2023-05-16T09:43:40;14.50;99.90
4910;DHT22;2470;49.868;8.660;2023-05-16T09:46:06;14.50;99.90
4910;DHT22;2470;49.868;8.660;2023-05-16T09:48:32;14.50;99.90
4910;DHT22;2470;49.868;8.660;2023-05-16T09:50:57;14.60;99.90
4910;DHT22;2470;49.868;8.660;2023-05-16T09:53:30;14.70;99.90
4910;DHT22;2470;49.868;8.660;2023-05-16T09:58:35;14.70;99.90
4910;DHT22;2470;49.868;8.660;2023-05-16T10:01:01;14.60;99.90
4910;DHT22;2470;49.868;8.660;2023-05-16T10:03:27;14.70;99.90
4910;DHT22;2470;49.868;8.660;2023-05-16T10:05:54;14.90;99.90
4910;DHT22;2470;49.868;8.660;2023-05-16T10:08:21;15.00;99.90
4910;DHT22;2470;49.868;8.660;2023-05-16T10:10:50;15.10;99.90
4910;DHT22;2470;49.868;8.660;2023-05-16T10:13:22;15.20;99.90
4910;DHT22;2470;49.868;8.660;2023-05-16T10:15:54;15.30;99.90
4910;DHT22;2470;49.868;8.660;2023-05-16T10:18:21;15.40;99.90
4910;DHT22;2470;49.868;8.660;2023-05-16T10:20:50;15.50;99.90
4910;DHT22;2470;49.868;8.660;2023-05-16T10:23:18;15.50;99.90
4910;DHT22;2470;49.868;8.660;2023-05-16T10:25:45;15.40;99.90
4910;DHT22;2470;49.868;8.660;2023-05-16T10:28:12;15.40;99.90
4910;DHT22;2470;49.868;8.660;2023-05-16T10:30:41;15.40;99.90
4910;DHT22;2470;49.868;8.660;2023-05-16T10:33:10;15.30;99.90
4910;DHT22;2470;49.868;8.660;2023-05-16T10:35:36;15.10;99.90
4910;DHT22;2470;49.868;8.660;2023-05-16T10:38:03;15.00;99.90
4910;DHT22;2470;49.868;8.660;2023-05-16T10:40:29;14.90;99.90
4910;DHT22;2470;49.868;8.660;2023-05-16T10:43:00;14.90;99.90
4910;DHT22;2470;49.868;8.660;2023-05-16T10:45:26;14.80;99.90
4910;DHT22;2470;49.868;8.660;2023-05-16T10:47:58;14.80;99.90
4910;DHT22;2470;49.868;8.660;2023-05-16T10:50:41;14.80;99.90
4910;DHT22;2470;49.868;8.660;2023-05-16T10:53:30;14.80;99.90
4910;DHT22;2470;49.868;8.660;2023-05-16T11:01:22;14.80;99.90
4910;DHT22;2470;49.868;8.660;2023-05-16T11:06:27;14.80;99.90
4910;DHT22;2470;49.868;8.660;2023-05-16T11:24:32;15.00;99.90
4910;DHT22;2470;49.868;8.660;2023-05-16T11:26:59;15.30;99.90
4910;DHT22;2470;49.868;8.660;2023-05-16T11:29:27;15.60;99.90
4910;DHT22;2470;49.868;8.660;2023-05-16T11:31:53;15.80;99.90
4910;DHT22;2470;49.868;8.660;2023-05-16T11:34:18;15.80;99.90
4910;DHT22;2470;49.868;8.660;2023-05-16T11:36:44;15.60;99.90
4910;DHT22;2470;49.868;8.660;2023-05-16T11:39:10;15.50;99.90
4910;DHT22;2470;49.868;8.660;2023-05-16T11:41:37;15.40;99.90
4910;DHT22;2470;49.868;8.660;2023-05-16T11:44:03;15.20;99.90
4910;DHT22;2470;49.868;8.660;2023-05-16T11:46:30;15.30;99.90
4910;DHT22;2470;49.868;8.660;2023-05-16T11:48:56;15.30;99.90
4910;DHT22;2470;49.868;8.660;2023-05-16T11:51:21;15.30;99.90
4910;DHT22;2470;49.868;8.660;2023-05-16T11:53:48;15.40;99.90
4910;DHT22;2470;49.868;8.660;2023-05-16T11:56:14;15.60;99.90
4910;DHT22;2470;49.868;8.660;2023-05-16T11:58:40;15.70;99.90
4910;DHT22;2470;49.868;8.660;2023-05-16T12:01:06;15.80;99.90
4910;DHT22;2470;49.868;8.660;2023-05-16T12:03:33;15.80;99.70
4910;DHT22;2470;49.868;8.660;2023-05-16T12:05:59;15.90;99.00
4910;DHT22;2470;49.868;8.660;2023-05-16T12:08:25;16.10;98.10
4910;DHT22;2470;49.868;8.660;2023-05-16T12:10:51;16.20;97.80
4910;DHT22;2470;49.868;8.660;2023-05-16T12:13:19;16.20;97.30
4910;DHT22;2470;49.868;8.660;2023-05-16T12:15:46;16.50;96.70
4910;DHT22;2470;49.868;8.660;2023-05-16T12:18:12;16.90;95.40
4910;DHT22;2470;49.868;8.660;2023-05-16T12:20:37;17.30;93.90
4910;DHT22;2470;49.868;8.660;2023-05-16T12:23:04;17.60;92.80
4910;DHT22;2470;49.868;8.660;2023-05-16T12:25:33;17.70;91.30
4910;DHT22;2470;49.868;8.660;2023-05-16T12:28:06;17.70;90.50
4910;DHT22;2470;49.868;8.660;2023-05-16T12:30:32;17.70;90.70
4910;DHT22;2470;49.868;8.660;2023-05-16T12:32:59;17.80;91.10
4910;DHT22;2470;49.868;8.660;2023-05-16T12:35:29;17.90;90.30
4910;DHT22;2470;49.868;8.660;2023-05-16T12:37:55;18.00;90.00
4910;DHT22;2470;49.868;8.660;2023-05-16T12:40:21;18.10;89.20
4910;DHT22;2470;49.868;8.660;2023-05-16T12:42:52;18.20;88.90
4910;DHT22;2470;49.868;8.660;2023-05-16T12:45:18;18.30;88.60
4910;DHT22;2470;49.868;8.660;2023-05-16T12:47:44;18.50;87.30
4910;DHT22;2470;49.868;8.660;2023-05-16T12:50:12;19.20;86.20
4910;DHT22;2470;49.868;8.660;2023-05-16T12:52:53;20.60;84.70
4910;DHT22;2470;49.868;8.660;2023-05-16T12:55:20;22.10;79.70
4910;DHT22;2470;49.868;8.660;2023-05-16T12:57:47;24.50;76.80
4910;DHT22;2470;49.868;8.660;2023-05-16T13:00:15;27.10;66.80
4910;DHT22;2470;49.868;8.660;2023-05-16T13:02:41;29.20;58.10
4910;DHT22;2470;49.868;8.660;2023-05-16T13:05:07;30.90;52.50
4910;DHT22;2470;49.868;8.660;2023-05-16T13:07:33;32.30;48.20
4910;DHT22;2470;49.868;8.660;2023-05-16T13:09:59;33.50;44.20
4910;DHT22;2470;49.868;8.660;2023-05-16T13:12:24;34.40;40.40
4910;DHT22;2470;49.868;8.660;2023-05-16T13:14:54;35.00;38.50
4910;DHT22;2470;49.868;8.660;2023-05-16T13:17:20;35.70;36.50
4910;DHT22;2470;49.868;8.660;2023-05-16T13:19:46;36.20;35.50
4910;DHT22;2470;49.868;8.660;2023-05-16T13:22:11;34.60;35.40
4910;DHT22;2470;49.868;8.660;2023-05-16T13:24:37;33.70;36.80
4910;DHT22;2470;49.868;8.660;2023-05-16T13:27:02;33.00;35.80
4910;DHT22;2470;49.868;8.660;2023-05-16T13:29:28;31.30;36.30
4910;DHT22;2470;49.868;8.660;2023-05-16T13:31:54;31.90;37.00
4910;DHT22;2470;49.868;8.660;2023-05-16T13:34:19;32.40;35.10
4910;DHT22;2470;49.868;8.660;2023-05-16T13:36:45;33.90;32.90
4910;DHT22;2470;49.868;8.660;2023-05-16T13:39:12;35.20;31.90
4910;DHT22;2470;49.868;8.660;2023-05-16T13:41:37;36.60;30.50
4910;DHT22;2470;49.868;8.660;2023-05-16T13:44:04;36.90;28.90
4910;DHT22;2470;49.868;8.660;2023-05-16T13:46:30;37.10;29.80
4910;DHT22;2470;49.868;8.660;2023-05-16T13:48:55;35.50;29.50
4910;DHT22;2470;49.868;8.660;2023-05-16T13:51:21;35.40;29.70
4910;DHT22;2470;49.868;8.660;2023-05-16T13:53:46;36.40;29.40
4910;DHT22;2470;49.868;8.660;2023-05-16T13:56:12;37.50;28.50
4910;DHT22;2470;49.868;8.660;2023-05-16T13:58:37;38.70;27.60
4910;DHT22;2470;49.868;8.660;2023-05-16T14:01:03;37.00;27.10
4910;DHT22;2470;49.868;8.660;2023-05-16T14:03:28;35.40;28.40
4910;DHT22;2470;49.868;8.660;2023-05-16T14:05:54;35.20;28.20
4910;DHT22;2470;49.868;8.660;2023-05-16T14:08:19;33.30;28.20
4910;DHT22;2470;49.868;8.660;2023-05-16T14:10:45;31.50;29.20
4910;DHT22;2470;49.868;8.660;2023-05-16T14:13:10;30.40;30.70
4910;DHT22;2470;49.868;8.660;2023-05-16T14:15:36;31.80;30.20
4910;DHT22;2470;49.868;8.660;2023-05-16T14:18:02;33.90;29.20
4910;DHT22;2470;49.868;8.660;2023-05-16T14:20:29;33.60;28.60
4910;DHT22;2470;49.868;8.660;2023-05-16T14:22:55;32.00;28.60
4910;DHT22;2470;49.868;8.660;2023-05-16T14:25:21;30.00;30.30
4910;DHT22;2470;49.868;8.660;2023-05-16T14:27:46;29.70;31.60
4910;DHT22;2470;49.868;8.660;2023-05-16T14:30:15;31.80;30.50
4910;DHT22;2470;49.868;8.660;2023-05-16T14:32:41;31.10;29.40
4910;DHT22;2470;49.868;8.660;2023-05-16T14:35:06;29.60;29.70
4910;DHT22;2470;49.868;8.660;2023-05-16T14:37:34;28.90;30.80
4910;DHT22;2470;49.868;8.660;2023-05-16T14:39:59;27.70;31.20
4910;DHT22;2470;49.868;8.660;2023-05-16T14:42:25;26.20;32.50
4910;DHT22;2470;49.868;8.660;2023-05-16T14:44:50;25.70;33.60
4910;DHT22;2470;49.868;8.660;2023-05-16T14:47:16;26.40;34.50
4910;DHT22;2470;49.868;8.660;2023-05-16T14:49:42;28.70;32.90
4910;DHT22;2470;49.868;8.660;2023-05-16T14:52:07;30.90;31.30
4910;DHT22;2470;49.868;8.660;2023-05-16T14:54:33;33.10;29.80
4910;DHT22;2470;49.868;8.660;2023-05-16T14:56:59;34.00;28.20
4910;DHT22;2470;49.868;8.660;2023-05-16T14:59:26;33.30;28.60
4910;DHT22;2470;49.868;8.660;2023-05-16T15:01:51;33.20;28.10
4910;DHT22;2470;49.868;8.660;2023-05-16T15:04:17;31.10;28.80
4910;DHT22;2470;49.868;8.660;2023-05-16T15:06:42;28.70;29.80
4910;DHT22;2470;49.868;8.660;2023-05-16T15:09:08;27.20;32.70
4910;DHT22;2470;49.868;8.660;2023-05-16T15:11:33;28.60;31.90
4910;DHT22;2470;49.868;8.660;2023-05-16T15:13:59;30.60;29.90
4910;DHT22;2470;49.868;8.660;2023-05-16T15:16:25;32.50;29.10
4910;DHT22;2470;49.868;8.660;2023-05-16T15:18:51;33.90;27.90
4910;DHT22;2470;49.868;8.660;2023-05-16T15:21:17;34.30;27.10
4910;DHT22;2470;49.868;8.660;2023-05-16T15:23:42;34.90;26.90
4910;DHT22;2470;49.868;8.660;2023-05-16T15:26:08;35.40;26.80
4910;DHT22;2470;49.868;8.660;2023-05-16T15:28:33;35.00;26.50
4910;DHT22;2470;49.868;8.660;2023-05-16T15:30:59;33.40;27.00
4910;DHT22;2470;49.868;8.660;2023-05-16T15:33:25;31.40;27.80
4910;DHT22;2470;49.868;8.660;2023-05-16T15:35:50;29.30;28.70
4910;DHT22;2470;49.868;8.660;2023-05-16T15:38:16;27.40;29.90
4910;DHT22;2470;49.868;8.660;2023-05-16T15:40:41;25.80;31.90
4910;DHT22;2470;49.868;8.660;2023-05-16T15:43:07;24.70;33.20
4910;DHT22;2470;49.868;8.660;2023-05-16T15:45:33;23.70;34.10
4910;DHT22;2470;49.868;8.660;2023-05-16T15:47:59;22.70;35.40
4910;DHT22;2470;49.868;8.660;2023-05-16T15:50:25;22.20;36.60
4910;DHT22;2470;49.868;8.660;2023-05-16T15:52:50;21.70;36.80
4910;DHT22;2470;49.868;8.660;2023-05-16T15:55:16;21.30;37.40
4910;DHT22;2470;49.868;8.660;2023-05-16T15:57:41;21.10;38.50
4910;DHT22;2470;49.868;8.660;2023-05-16T16:00:08;20.90;38.70
4910;DHT22;2470;49.868;8.660;2023-05-16T16:02:34;20.70;38.30
4910;DHT22;2470;49.868;8.660;2023-05-16T16:04:59;20.50;38.80
4910;DHT22;2470;49.868;8.660;2023-05-16T16:07:25;20.40;38.90
4910;DHT22;2470;49.868;8.660;2023-05-16T16:09:50;20.20;39.40
4910;DHT22;2470;49.868;8.660;2023-05-16T16:12:16;19.90;39.30
4910;DHT22;2470;49.868;8.660;2023-05-16T16:14:41;19.70;40.20
4910;DHT22;2470;49.868;8.660;2023-05-16T16:17:07;19.60;40.10
4910;DHT22;2470;49.868;8.660;2023-05-16T16:19:33;19.60;40.10
4910;DHT22;2470;49.868;8.660;2023-05-16T16:21:58;19.60;39.90
4910;DHT22;2470;49.868;8.660;2023-05-16T16:24:24;19.70;40.20
4910;DHT22;2470;49.868;8.660;2023-05-16T16:26:49;19.70;39.50
4910;DHT22;2470;49.868;8.660;2023-05-16T16:29:14;19.70;40.10
4910;DHT22;2470;49.868;8.660;2023-05-16T16:31:40;19.60;38.90